createdAt,value
2019-02-02T00:03:22.398Z,94.29
2019-02-02T00:08:26.918Z,94.48
2019-02-02T00:13:31.132Z,95.38
2019-02-02T00:18:34.943Z,95.34
2019-02-02T00:23:40.392Z,95.07
2019-02-02T00:28:44.095Z,95.30
2019-02-02T00:33:47.909Z,95.39
2019-02-02T00:38:52.344Z,95.47
2019-02-02T00:43:58.323Z,95.93
2019-02-02T00:49:02.948Z,95.44
2019-02-02T00:54:06.934Z,94.63
2019-02-02T00:59:13.203Z,94.58
2019-02-02T01:04:17.132Z,94.73
2019-02-02T01:09:25.295Z,93.86
2019-02-02T01:14:28.995Z,93.64
2019-02-02T01:19:32.979Z,93.69
2019-02-02T01:24:36.700Z,93.47
2019-02-02T01:29:40.529Z,94.05
2019-02-02T01:34:44.278Z,94.25
2019-02-02T01:39:48.062Z,93.86
2019-02-02T01:44:52.047Z,93.74
2019-02-02T01:49:56.015Z,93.00
2019-02-02T01:54:59.721Z,92.85
2019-02-02T02:00:06.042Z,93.38
2019-02-02T02:05:10.128Z,92.81
2019-02-02T02:10:16.657Z,92.22
2019-02-02T02:15:22.835Z,92.46
2019-02-02T02:20:26.573Z,93.40
2019-02-02T02:25:33.511Z,94.22
2019-02-02T02:30:37.447Z,93.90
2019-02-02T02:35:41.165Z,94.14
2019-02-02T02:40:45.927Z,94.30
2019-02-02T02:45:49.606Z,94.74
2019-02-02T02:50:53.407Z,94.35
2019-02-02T02:55:57.275Z,95.00
2019-02-02T03:01:02.864Z,95.69
2019-02-02T03:06:07.215Z,96.05
2019-02-02T03:11:11.547Z,96.17
2019-02-02T03:16:15.342Z,96.43
2019-02-02T03:21:19.213Z,96.83
2019-02-02T03:26:24.588Z,96.79
2019-02-02T03:31:28.359Z,97.55
2019-02-02T03:36:32.281Z,97.80
2019-02-02T03:41:36.016Z,98.25
2019-02-02T03:46:39.744Z,98.37
2019-02-02T03:51:43.496Z,98.45
2019-02-02T03:56:47.227Z,97.81
2019-02-02T04:01:51.088Z,98.15
2019-02-02T04:06:56.928Z,98.71
2019-02-02T04:12:03.253Z,98.40
2019-02-02T04:17:07.339Z,98.31
2019-02-02T04:22:11.245Z,97.66
2019-02-02T04:27:14.884Z,97.70
2019-02-02T04:32:19.144Z,97.37
2019-02-02T04:37:23.776Z,96.65
2019-02-02T04:42:27.629Z,95.78
2019-02-02T04:47:31.431Z,96.19
2019-02-02T04:52:35.147Z,96.02
2019-02-02T04:57:39.305Z,95.94
2019-02-02T05:02:44.395Z,95.26
2019-02-02T05:07:48.766Z,94.33
2019-02-02T05:12:53.569Z,94.47
2019-02-02T05:17:57.284Z,94.71
2019-02-02T05:23:01.722Z,95.15
2019-02-02T05:28:05.468Z,94.99
2019-02-02T05:33:10.833Z,96.25
2019-02-02T05:38:14.661Z,96.49
2019-02-02T05:43:18.713Z,96.13
2019-02-02T05:48:23.895Z,96.40
2019-02-02T05:53:28.415Z,96.63
2019-02-02T05:58:32.481Z,96.84
2019-02-02T06:03:37.115Z,95.83
2019-02-02T06:08:40.739Z,95.86
2019-02-02T06:13:48.229Z,95.69
2019-02-02T06:18:53.460Z,95.79
2019-02-02T06:24:01.648Z,95.33
2019-02-02T06:29:13.556Z,95.87
2019-02-02T06:34:20.639Z,95.49
2019-02-02T06:39:26.739Z,95.12
2019-02-02T06:44:31.258Z,94.72
2019-02-02T06:49:37.514Z,95.15
2019-02-02T06:54:45.285Z,93.55
2019-02-02T06:59:51.363Z,92.25
2019-02-02T07:04:59.798Z,91.57
2019-02-02T07:10:10.567Z,90.04
2019-02-02T07:15:15.062Z,90.17
2019-02-02T07:20:19.044Z,88.69
2019-02-02T07:25:24.050Z,87.57
2019-02-02T07:30:29.682Z,86.67
2019-02-02T07:35:39.235Z,86.32
2019-02-02T07:40:43.371Z,85.75
2019-02-02T07:45:47.680Z,85.07
2019-02-02T07:51:00.270Z,85.11
2019-02-02T07:56:05.400Z,84.26
2019-02-02T08:01:15.245Z,82.31
2019-02-02T08:06:24.579Z,81.61
2019-02-02T08:11:44.967Z,81.12
2019-02-02T08:16:52.543Z,80.40
2019-02-02T08:22:00.749Z,79.84
2019-02-02T08:27:06.720Z,78.59
2019-02-02T08:32:13.407Z,78.23
2019-02-02T08:37:19.795Z,77.83
2019-02-02T08:42:50.372Z,75.82
2019-02-02T08:47:54.818Z,75.79
2019-02-02T08:53:09.540Z,74.28
2019-02-02T08:58:19.489Z,73.75
2019-02-02T09:03:24.018Z,72.42
2019-02-02T09:08:29.522Z,70.20
2019-02-02T09:13:33.330Z,69.89
2019-02-02T09:18:38.278Z,69.15
2019-02-02T09:23:43.126Z,69.24
2019-02-02T09:28:48.670Z,69.47
2019-02-02T09:33:53.731Z,68.04
2019-02-02T09:38:59.305Z,68.44
2019-02-02T09:44:05.121Z,68.30
2019-02-02T09:49:13.506Z,68.47
2019-02-02T09:54:26.317Z,68.34
2019-02-02T09:59:23.387Z,65.62
2019-02-02T10:04:27.797Z,65.62
2019-02-02T10:09:32.087Z,66.24
2019-02-02T10:14:36.215Z,65.95
2019-02-02T10:19:40.816Z,65.95
2019-02-02T10:24:47.498Z,66.97
2019-02-02T10:29:52.354Z,66.52
2019-02-02T10:34:57.882Z,67.83
2019-02-02T10:40:01.984Z,68.64
2019-02-02T10:45:08.645Z,70.10
2019-02-02T10:50:14.871Z,70.29
2019-02-02T11:01:17.396Z,69.28
2019-02-02T11:06:26.585Z,69.28
2019-02-02T11:11:30.590Z,69.05
2019-02-02T11:16:41.225Z,70.04
2019-02-02T11:21:46.328Z,69.72
2019-02-02T11:26:51.321Z,69.72
2019-02-02T11:32:02.471Z,69.19
2019-02-02T11:37:02.042Z,69.11
2019-02-02T11:42:27.955Z,68.53
2019-02-02T11:47:30.992Z,68.36
2019-02-02T11:52:34.875Z,69.95
2019-02-02T11:57:41.254Z,69.95
2019-02-02T12:02:49.395Z,69.86
2019-02-02T12:07:51.599Z,70.34
2019-02-02T12:12:55.483Z,70.34
2019-02-02T12:17:59.746Z,70.59
2019-02-02T12:23:05.034Z,71.52
2019-02-02T12:28:09.324Z,70.16
2019-02-02T12:33:13.499Z,69.36
2019-02-02T12:38:19.173Z,68.59
2019-02-02T12:43:23.886Z,66.73
2019-02-02T12:48:27.833Z,66.59
2019-02-02T12:53:31.565Z,66.45
2019-02-02T12:58:35.477Z,66.14
2019-02-02T13:03:39.586Z,66.43
2019-02-02T13:08:43.851Z,66.66
2019-02-02T13:13:47.943Z,66.84
2019-02-02T13:19:14.001Z,66.59
2019-02-02T13:25:06.958Z,66.29
2019-02-02T13:30:21.817Z,65.00
2019-02-02T13:35:47.339Z,65.17
2019-02-02T13:41:00.486Z,65.44
2019-02-02T13:46:06.472Z,65.47
2019-02-02T13:51:11.902Z,65.60
2019-02-02T13:56:22.029Z,66.19
2019-02-02T14:01:26.005Z,66.75
2019-02-02T14:06:31.492Z,66.76
2019-02-02T14:11:35.721Z,67.28
2019-02-02T14:16:40.141Z,68.69
2019-02-02T14:21:47.209Z,68.69
2019-02-02T14:26:53.993Z,68.89
2019-02-02T14:32:10.853Z,69.80
2019-02-02T14:37:16.321Z,68.76
2019-02-02T14:42:20.541Z,68.76
2019-02-02T14:47:24.571Z,70.83
2019-02-02T14:52:28.452Z,70.83
2019-02-02T14:57:32.480Z,71.89
2019-02-02T15:02:38.331Z,71.89
2019-02-02T15:07:42.236Z,73.95
2019-02-02T15:12:46.815Z,75.02
2019-02-02T15:17:51.188Z,76.12
2019-02-02T15:22:55.259Z,76.51
2019-02-02T15:28:01.098Z,78.24
2019-02-02T15:33:06.608Z,78.01
2019-02-02T15:38:11.226Z,78.78
2019-02-02T15:43:15.052Z,79.52
2019-02-02T15:48:18.956Z,80.25
2019-02-02T15:53:23.881Z,81.49
2019-02-02T15:58:28.927Z,82.71
2019-02-02T16:03:33.306Z,81.83
2019-02-02T16:08:39.548Z,82.96
2019-02-02T16:13:44.385Z,84.19
2019-02-02T16:18:53.278Z,81.86
2019-02-02T16:23:59.971Z,83.33
2019-02-02T16:29:06.993Z,84.85
2019-02-02T16:34:16.534Z,85.38
2019-02-02T16:39:21.528Z,83.91
2019-02-02T16:44:25.524Z,84.06
2019-02-02T16:49:30.669Z,84.41
2019-02-02T16:54:38.729Z,84.08
2019-02-02T16:59:43.628Z,84.32
2019-02-02T17:04:49.019Z,85.41
2019-02-02T17:09:53.619Z,86.56
2019-02-02T17:14:57.467Z,87.00
2019-02-02T17:20:01.381Z,87.78
2019-02-02T17:25:08.675Z,87.77
2019-02-02T17:30:18.034Z,88.62
2019-02-02T17:35:22.707Z,88.73
2019-02-02T17:40:27.369Z,89.08
2019-02-02T17:45:32.288Z,88.55
2019-02-02T17:50:36.789Z,89.20
2019-02-02T17:55:41.291Z,89.71
2019-02-02T18:00:54.048Z,90.61
2019-02-02T18:05:58.356Z,90.40
2019-02-02T18:11:02.750Z,91.17
2019-02-02T18:16:07.062Z,92.07
2019-02-02T18:21:11.373Z,91.13
2019-02-02T18:26:15.094Z,92.57
2019-02-02T18:31:19.618Z,92.14
2019-02-02T18:36:23.418Z,91.19
2019-02-02T18:41:27.170Z,91.61
2019-02-02T18:46:31.124Z,92.86
2019-02-02T18:51:35.118Z,92.80
2019-02-02T18:56:43.575Z,93.18
2019-02-02T19:01:47.450Z,93.20
2019-02-02T19:06:52.066Z,94.03
2019-02-02T19:11:56.456Z,94.75
2019-02-02T19:17:01.476Z,92.48
2019-02-02T19:22:06.344Z,93.26
2019-02-02T19:27:11.995Z,93.58
2019-02-02T19:32:16.123Z,93.76
2019-02-02T19:37:21.238Z,94.40
2019-02-02T19:42:25.099Z,95.31
2019-02-02T19:47:29.030Z,94.99
2019-02-02T19:52:34.576Z,95.13
2019-02-02T19:57:38.442Z,95.66
2019-02-02T20:02:42.435Z,96.05
2019-02-02T20:07:47.580Z,96.40
2019-02-02T20:12:51.403Z,96.73
2019-02-02T20:17:55.350Z,94.50
2019-02-02T20:22:59.124Z,95.30
2019-02-02T20:28:04.558Z,95.51
2019-02-02T20:33:08.522Z,95.34
2019-02-02T20:38:12.230Z,95.68
2019-02-02T20:43:16.260Z,94.67
2019-02-02T20:48:20.282Z,95.14
2019-02-02T20:53:24.000Z,95.47
2019-02-02T20:58:27.835Z,94.62
2019-02-02T21:03:31.761Z,95.13
2019-02-02T21:08:37.289Z,96.16
2019-02-02T21:13:41.221Z,95.25
2019-02-02T21:18:46.752Z,95.63
2019-02-02T21:23:50.763Z,95.87
2019-02-02T21:28:54.435Z,95.51
2019-02-02T21:33:58.706Z,95.01
2019-02-02T21:39:06.653Z,95.82
2019-02-02T21:44:10.541Z,96.81
2019-02-02T21:49:14.493Z,96.47
2019-02-02T21:54:18.296Z,95.76
2019-02-02T21:59:22.132Z,95.95
2019-02-02T22:04:26.236Z,96.34
2019-02-02T22:09:29.971Z,95.79
2019-02-02T22:14:33.915Z,96.13
2019-02-02T22:19:38.631Z,97.26
2019-02-02T22:24:44.643Z,96.85
2019-02-02T22:29:48.294Z,97.04
2019-02-02T22:34:52.755Z,97.40
2019-02-02T22:39:56.500Z,97.80
2019-02-02T22:45:00.347Z,97.98
2019-02-02T22:50:05.711Z,98.78
2019-02-02T22:55:10.550Z,99.09
2019-02-02T23:00:58.097Z,99.20
2019-02-02T23:06:53.017Z,99.77
2019-02-02T23:12:16.206Z,99.86
2019-02-02T23:17:20.014Z,100.00
2019-02-02T23:22:23.805Z,100.00
2019-02-02T23:27:27.500Z,100.00
2019-02-02T23:32:31.484Z,100.00
2019-02-02T23:37:35.640Z,100.00
2019-02-02T23:42:39.388Z,100.00
2019-02-02T23:47:43.073Z,100.00
2019-02-02T23:52:49.078Z,100.00
2019-02-02T23:57:53.022Z,100.00
